Terminal Aerodrome Forecast
Issued by NWS Upton, NY

Home | Current Version | Previous Version | Text Only | Print | Product List | Glossary On
Versions: 1 2 3 4 5 6 7 8 9 10 11 12 13 14 15 16 17 18 19 20 21 22 23 24 25 26 27
000
FTUS41 KOKX 190500 RRA
TAFISP
TAF
KISP 190548Z 1906/2006 01010KT P6SM SCT070
     FM191500 05011KT P6SM FEW025 SCT050
     FM191800 07010KT P6SM SCT030
     FM192100 11009KT P6SM SCT030
     FM200300 13007KT P6SM SCT030=

USA.gov is the U.S. government's official web portal to all federal, state and local government web resources and services.